Ayane Maru — JD3352 — position and weather

sailwx.info

Track history (hours):
 
Tides and Currents Weather Stations Pressure Air Temp Water Temp Dewpoint Dewpoint Depression Visibility Wind Speed Wind Dir Waves Ship Positions

Ayane Maru

Last reported at 2018-Apr-24 08:00 UTC. Time now 2018-Apr-24 12:40 UTC.
Position N 34°35' E 138°56'.

Length 85 m; draft 3.4 m.

Type: Cargo ship. MMSI: 431003481.

Date/timePositionNaut miles runAvg speedWind from/ knotsBaromVisibWave heightAir tempDewpointWater temp
2018-Apr-24 08:00N 34°35' E 138°56'1213.7
2018-Apr-24 07:08N 34°38' E 138°42'513.5
2018-Apr-24 06:45N 34°40' E 138°36'613.2
2018-Apr-24 06:19N 34°43' E 138°30'413.1
2018-Apr-24 06:00N 34°44' E 138°25'611.3
2018-Apr-24 05:27N 34°47' E 138°18'0 0.1
2018-Apr-24 04:59N 34°47' E 138°18'0 0.0
2018-Apr-24 03:42N 34°47' E 138°18'0 0.0
2018-Apr-24 03:30N 34°47' E 138°18'0 0.0
2018-Apr-23 23:29N 34°47' E 138°18'1 2.6
2018-Apr-23 22:59N 34°45' E 138°18'612.7
2018-Apr-23 22:29N 34°39' E 138°17'16711.1
2018-Apr-23 07:28N 33°54' E 135°02'612.8
2018-Apr-23 07:00N 33°60' E 135°03'612.5
2018-Apr-23 06:29N 34°06' E 135°03'612.3
2018-Apr-23 06:00N 34°12' E 135°03'612.1
2018-Apr-23 05:30N 34°18' E 135°04'611.5
2018-Apr-23 05:00N 34°23' E 135°08'612.1
2018-Apr-23 04:30N 34°27' E 135°12'612.2
2018-Apr-23 04:00N 34°32' E 135°17'612.2
2018-Apr-23 03:31N 34°36' E 135°22'2 3.2
2018-Apr-23 03:00N 34°37' E 135°24'0 0.0
2018-Apr-23 02:30N 34°37' E 135°24'0 0.0
2018-Apr-23 02:00N 34°37' E 135°24'0 0.0
2018-Apr-23 01:30N 34°37' E 135°24'0 0.0
2018-Apr-23 01:00N 34°37' E 135°24'0 0.0
2018-Apr-23 00:30N 34°37' E 135°24'0 0.0
2018-Apr-23 00:00N 34°37' E 135°24'0 0.0
2018-Apr-22 23:30N 34°37' E 135°24'0 0.0
2018-Apr-22 23:00N 34°37' E 135°24'0 0.0
2018-Apr-22 22:30N 34°37' E 135°24'0 0.0
2018-Apr-22 22:00N 34°37' E 135°24'0 0.2
2018-Apr-22 21:30N 34°37' E 135°24'4 8.1
2018-Apr-22 21:00N 34°36' E 135°20'1 1.6
2018-Apr-22 20:30N 34°35' E 135°19'0 0.0
2018-Apr-22 20:00N 34°35' E 135°19'0 0.0
2018-Apr-22 19:30N 34°35' E 135°19'0 0.0
2018-Apr-22 19:00N 34°35' E 135°19'2 4.5
2018-Apr-22 18:30N 34°35' E 135°16'612.3
2018-Apr-22 18:00N 34°35' E 135°08'611.2
2018-Apr-22 17:30N 34°37' E 135°02'510.6
2018-Apr-22 17:00N 34°36' E 134°56'510.7
2018-Apr-22 16:30N 34°34' E 134°50'611.7
2018-Apr-22 16:00N 34°31' E 134°43'612.7
2018-Apr-22 15:30N 34°29' E 134°36'713.3
2018-Apr-22 15:00N 34°26' E 134°28'1312.0
2018-Apr-22 13:54N 34°24' E 134°12'8011.6
2018-Apr-22 07:01N 34°13' E 132°37'0 9.6
2018-Apr-22 07:00N 34°13' E 132°37'0 0.0
2018-Apr-21 15:59N 34°13' E 132°37'10 1.0
2018-Apr-21 06:01N 34°15' E 132°49'6312.6
2018-Apr-21 01:00N 34°27' E 134°04'714.5
2018-Apr-21 00:30N 34°25' E 134°12'714.1
2018-Apr-21 00:01N 34°22' E 134°20'713.8
2018-Apr-20 23:30N 34°19' E 134°28'713.8
2018-Apr-20 23:00N 34°17' E 134°35'713.3
2018-Apr-20 22:30N 34°12' E 134°41'613.3
2018-Apr-20 22:00N 34°07' E 134°46'713.5
2018-Apr-20 21:30N 34°02' E 134°52'713.4
2018-Apr-20 21:00N 33°57' E 134°57'713.2
2018-Apr-20 20:30N 33°52' E 135°02'6410.8
2018-Apr-20 14:34N 33°47' E 136°19'5812.0
2018-Apr-20 09:45N 34°37' E 136°55'613.0
2018-Apr-20 09:18N 34°41' E 136°50'413.5
2018-Apr-20 09:00N 34°45' E 136°48'613.3
2018-Apr-20 08:30N 34°51' E 136°46'713.6
2018-Apr-20 08:00N 34°58' E 136°46'4 8.7
2018-Apr-20 07:30N 35°02' E 136°48'0 0.0
2018-Apr-20 07:00N 35°02' E 136°48'0 0.0
2018-Apr-20 06:31N 35°02' E 136°48'0 0.0
2018-Apr-20 06:00N 35°02' E 136°48'0 0.0
2018-Apr-20 05:29N 35°02' E 136°48'0 0.0
2018-Apr-20 05:01N 35°02' E 136°48'0 0.0
2018-Apr-20 04:30N 35°02' E 136°48'0 0.0
2018-Apr-20 04:01N 35°02' E 136°48'0 0.0
2018-Apr-20 03:31N 35°02' E 136°48'0 0.0
2018-Apr-20 03:00N 35°02' E 136°48'0 0.0
2018-Apr-20 02:31N 35°02' E 136°48'0 0.0
2018-Apr-20 02:00N 35°02' E 136°48'0 0.0
2018-Apr-20 01:31N 35°02' E 136°48'0 0.0
2018-Apr-20 01:01N 35°02' E 136°48'0 0.0
2018-Apr-20 00:31N 35°02' E 136°48'0 0.0
2018-Apr-20 00:00N 35°02' E 136°48'0 0.0
2018-Apr-19 23:30N 35°02' E 136°48'0 0.0
2018-Apr-19 23:01N 35°02' E 136°48'0 0.0
2018-Apr-19 22:30N 35°02' E 136°48'0 0.0
2018-Apr-19 22:01N 35°02' E 136°48'0 0.0
2018-Apr-19 21:30N 35°02' E 136°48'0 0.0
2018-Apr-19 21:00N 35°02' E 136°48'0 0.0
2018-Apr-19 20:30N 35°02' E 136°48'0 0.0
2018-Apr-19 20:00N 35°02' E 136°48'0 0.0
2018-Apr-19 19:31N 35°02' E 136°48'0 0.0
2018-Apr-19 19:01N 35°02' E 136°48'0 0.0
2018-Apr-19 18:31N 35°02' E 136°48'0 0.0
2018-Apr-19 18:01N 35°02' E 136°48'0 0.0
2018-Apr-19 17:31N 35°02' E 136°48'0 0.0
2018-Apr-19 17:00N 35°02' E 136°48'0 0.0
2018-Apr-19 16:30N 35°02' E 136°48'0 0.0
2018-Apr-19 16:00N 35°02' E 136°48'0 0.0
2018-Apr-19 15:30N 35°02' E 136°48'0 0.0
2018-Apr-19 15:01N 35°02' E 136°48'0 0.0
2018-Apr-19 14:30N 35°02' E 136°48'0 0.0
2018-Apr-19 14:01N 35°02' E 136°48'0 0.0
2018-Apr-19 13:30N 35°02' E 136°48'0 0.0
2018-Apr-19 13:01N 35°02' E 136°48'0 0.0
2018-Apr-19 12:30N 35°02' E 136°48'0 0.0
2018-Apr-19 12:01N 35°02' E 136°48'0 0.0
2018-Apr-19 11:30N 35°02' E 136°48'0 0.0
2018-Apr-19 11:01N 35°02' E 136°48'0 0.0
2018-Apr-19 10:30N 35°02' E 136°48'0 0.0
2018-Apr-19 10:01N 35°02' E 136°48'0 0.0
2018-Apr-19 09:31N 35°02' E 136°48'0 0.0
2018-Apr-19 09:00N 35°02' E 136°48'0 0.0
2018-Apr-19 08:30N 35°02' E 136°48'3 5.1
2018-Apr-19 08:01N 34°60' E 136°47'612.7
2018-Apr-19 07:30N 34°53' E 136°47'713.6
2018-Apr-19 07:00N 34°47' E 136°49'714.0
2018-Apr-19 06:30N 34°40' E 136°53'714.2
2018-Apr-19 06:00N 34°35' E 136°59'107 9.4
2018-Apr-18 18:39N 33°50' E 135°02'214.0
2018-Apr-18 18:30N 33°52' E 135°00'713.8
2018-Apr-18 18:00N 33°57' E 134°56'813.8
2018-Apr-18 17:24N 34°03' E 134°49'614.0
2018-Apr-18 17:00N 34°08' E 134°45'714.2
2018-Apr-18 16:30N 34°13' E 134°40'713.9
2018-Apr-18 16:01N 34°17' E 134°33'713.6
2018-Apr-18 15:29N 34°20' E 134°25'1213.1
2018-Apr-18 14:35N 34°25' E 134°11'212.6
2018-Apr-18 14:27N 34°25' E 134°10'7811.1
2018-Apr-18 07:26N 34°13' E 132°37'0 0.1
2018-Apr-18 02:13N 34°13' E 132°37'0 0.0
2018-Apr-18 02:01N 34°13' E 132°37'0 0.0
2018-Apr-18 01:21N 34°13' E 132°37'0 0.0
2018-Apr-18 00:46N 34°13' E 132°37'0 0.0
2018-Apr-18 00:22N 34°13' E 132°37'0 0.0
2018-Apr-17 23:55N 34°13' E 132°37'1 0.2
2018-Apr-17 17:17N 34°12' E 132°37'1013.7
2018-Apr-17 16:34N 34°15' E 132°48'113.8
2018-Apr-17 16:29N 34°16' E 132°49'613.3
2018-Apr-17 16:00N 34°18' E 132°57'6412.9
2018-Apr-17 11:04N 34°24' E 134°14'115.0
2018-Apr-17 11:00N 34°24' E 134°15'913.7
2018-Apr-17 10:19N 34°26' E 134°26'413.4
2018-Apr-17 09:59N 34°28' E 134°31'713.5
2018-Apr-17 09:30N 34°30' E 134°38'713.5
2018-Apr-17 09:00N 34°33' E 134°46'712.9
2018-Apr-17 08:29N 34°35' E 134°53'612.2
2018-Apr-17 08:00N 34°37' E 135°00'510.4
2018-Apr-17 07:31N 34°36' E 135°06'713.3
2018-Apr-17 07:00N 34°36' E 135°14'612.8
2018-Apr-17 06:30N 34°36' E 135°22'2 3.8
2018-Apr-17 06:00N 34°37' E 135°24'0 0.0
2018-Apr-17 05:30N 34°37' E 135°24'0 0.0
2018-Apr-17 05:00N 34°37' E 135°24'0 0.0
2018-Apr-17 04:31N 34°37' E 135°24'0 0.0
2018-Apr-17 04:00N 34°37' E 135°24'0 0.0
2018-Apr-17 03:31N 34°37' E 135°24'0 0.0
2018-Apr-17 03:00N 34°37' E 135°24'0 0.0
2018-Apr-17 02:31N 34°37' E 135°24'0 0.0
2018-Apr-17 02:00N 34°37' E 135°24'0 0.0
2018-Apr-17 01:30N 34°37' E 135°24'0 0.0
2018-Apr-17 01:00N 34°37' E 135°24'0 0.0
2018-Apr-17 00:30N 34°37' E 135°24'0 0.0
2018-Apr-17 00:00N 34°37' E 135°24'0 0.0
2018-Apr-16 23:30N 34°37' E 135°24'0 0.0
2018-Apr-16 23:00N 34°37' E 135°24'0 0.0
2018-Apr-16 22:30N 34°37' E 135°24'0 0.0
2018-Apr-16 22:00N 34°37' E 135°24'0 0.2
2018-Apr-16 21:30N 34°37' E 135°24'4 7.4
2018-Apr-16 21:00N 34°36' E 135°20'1 1.6
2018-Apr-16 20:30N 34°36' E 135°19'0 0.0
2018-Apr-16 20:01N 34°36' E 135°19'0 0.0
2018-Apr-16 19:31N 34°36' E 135°19'0 0.0
2018-Apr-16 19:01N 34°36' E 135°19'0 0.0
2018-Apr-16 18:30N 34°36' E 135°19'0 0.0
2018-Apr-16 18:01N 34°36' E 135°19'0 0.0
2018-Apr-16 17:30N 34°36' E 135°19'0 0.0
2018-Apr-16 17:00N 34°36' E 135°19'0 0.0
2018-Apr-16 16:30N 34°36' E 135°19'0 0.0
2018-Apr-16 16:00N 34°36' E 135°19'0 0.0
2018-Apr-16 15:30N 34°36' E 135°19'0 0.0
2018-Apr-16 15:00N 34°36' E 135°19'0 0.0
2018-Apr-16 14:30N 34°36' E 135°19'0 0.0
2018-Apr-16 14:00N 34°36' E 135°19'0 0.0
2018-Apr-16 13:30N 34°36' E 135°19'1 2.9
2018-Apr-16 13:00N 34°35' E 135°18'611.6
2018-Apr-16 12:30N 34°30' E 135°14'612.5
2018-Apr-16 12:00N 34°25' E 135°09'713.2
2018-Apr-16 11:30N 34°19' E 135°05'713.5
2018-Apr-16 11:00N 34°13' E 135°02'713.3
2018-Apr-16 10:30N 34°06' E 135°02'713.4
2018-Apr-16 10:00N 33°60' E 135°02'813.2
2018-Apr-16 09:26N 33°52' E 135°03'101 8.7
2018-Apr-15 21:45N 34°40' E 136°51'413.9
2018-Apr-15 21:29N 34°43' E 136°48'714.0
2018-Apr-15 21:00N 34°49' E 136°46'714.1
2018-Apr-15 20:30N 34°56' E 136°46'511.1
2018-Apr-15 20:00N 35°01' E 136°48'1 1.1
2018-Apr-15 19:31N 35°02' E 136°48'0 0.0
2018-Apr-15 19:00N 35°02' E 136°48'0 0.0
2018-Apr-15 18:31N 35°02' E 136°48'0 0.0
2018-Apr-15 18:00N 35°02' E 136°48'0 0.0
2018-Apr-15 17:30N 35°02' E 136°48'0 0.0
2018-Apr-15 17:01N 35°02' E 136°48'0 0.0
2018-Apr-15 16:30N 35°02' E 136°48'0 0.0
2018-Apr-15 16:00N 35°02' E 136°48'0 0.0
2018-Apr-15 15:31N 35°02' E 136°48'0 0.0
2018-Apr-15 15:00N 35°02' E 136°48'0 0.0
2018-Apr-15 14:31N 35°02' E 136°48'0 0.0
2018-Apr-15 14:00N 35°02' E 136°48'0 0.0
2018-Apr-15 13:31N 35°02' E 136°48'0 0.0
2018-Apr-15 13:00N 35°02' E 136°48'0 0.0
2018-Apr-15 12:29N 35°02' E 136°48'0 0.0
2018-Apr-15 12:01N 35°02' E 136°48'0 0.0
2018-Apr-15 11:30N 35°02' E 136°48'0 0.0
2018-Apr-15 10:59N 35°02' E 136°48'0 0.0
2018-Apr-15 10:31N 35°02' E 136°48'0 0.0
2018-Apr-15 10:00N 35°02' E 136°48'0 0.0
2018-Apr-15 09:30N 35°02' E 136°48'0 0.0
2018-Apr-15 09:01N 35°02' E 136°48'0 0.0
2018-Apr-15 08:30N 35°02' E 136°48'0 0.0
2018-Apr-15 08:00N 35°02' E 136°48'0 0.0
2018-Apr-15 07:30N 35°02' E 136°48'0 0.0
2018-Apr-15 07:00N 35°02' E 136°48'0 0.0
2018-Apr-15 06:30N 35°02' E 136°48'0 0.0
2018-Apr-15 06:00N 35°02' E 136°48'0 0.0
2018-Apr-15 05:30N 35°02' E 136°48'0 0.0
2018-Apr-15 04:59N 35°02' E 136°48'0 0.0
2018-Apr-15 04:30N 35°02' E 136°48'0 0.0
2018-Apr-15 04:00N 35°02' E 136°48'0 0.0
2018-Apr-15 03:30N 35°02' E 136°48'0 0.0
2018-Apr-15 03:00N 35°02' E 136°48'0 0.0
2018-Apr-15 02:30N 35°02' E 136°48'0 0.0
2018-Apr-15 02:00N 35°02' E 136°48'0 0.0
2018-Apr-15 01:29N 35°02' E 136°48'0 0.0
2018-Apr-15 01:00N 35°02' E 136°48'0 0.0
2018-Apr-15 00:30N 35°02' E 136°48'0 0.0
2018-Apr-15 00:00N 35°02' E 136°48'0 0.0
2018-Apr-14 23:30N 35°02' E 136°48'0 0.0
2018-Apr-14 23:00N 35°02' E 136°48'0 0.0
2018-Apr-14 22:30N 35°02' E 136°48'0 0.0
2018-Apr-14 22:00N 35°02' E 136°48'0 0.0
2018-Apr-14 21:30N 35°02' E 136°48'0 0.0
2018-Apr-14 21:00N 35°02' E 136°48'0 0.0
2018-Apr-14 20:31N 35°02' E 136°48'0 0.0
2018-Apr-14 20:00N 35°02' E 136°48'0 0.0
2018-Apr-14 19:31N 35°02' E 136°48'0 0.0
2018-Apr-14 19:00N 35°02' E 136°48'0 0.0
2018-Apr-14 18:30N 35°02' E 136°48'0 0.0
2018-Apr-14 18:00N 35°02' E 136°48'0 0.0
2018-Apr-14 17:30N 35°02' E 136°48'0 0.0
2018-Apr-14 17:00N 35°02' E 136°48'0 0.0
2018-Apr-14 16:31N 35°02' E 136°48'0 0.0
2018-Apr-14 16:00N 35°02' E 136°48'0 0.0
2018-Apr-14 15:31N 35°02' E 136°48'0 0.0
2018-Apr-14 15:00N 35°02' E 136°48'0 0.0
2018-Apr-14 14:31N 35°02' E 136°48'0 0.0
2018-Apr-14 14:01N 35°02' E 136°48'0 0.0
2018-Apr-14 13:29N 35°02' E 136°48'0 0.0
2018-Apr-14 13:00N 35°02' E 136°48'0 0.0
2018-Apr-14 12:31N 35°02' E 136°48'0 0.0
2018-Apr-14 12:01N 35°02' E 136°48'0 0.0
2018-Apr-14 11:31N 35°02' E 136°48'0 0.0
2018-Apr-14 11:01N 35°02' E 136°48'0 0.0
2018-Apr-14 10:29N 35°02' E 136°48'0 0.0
2018-Apr-14 10:00N 35°02' E 136°48'0 0.0
2018-Apr-14 09:30N 35°02' E 136°48'0 0.0
2018-Apr-14 09:01N 35°02' E 136°48'0 0.0
2018-Apr-14 08:30N 35°02' E 136°48'  
Track history (hours):
 
Tides and Currents Weather Stations Pressure Air Temp Water Temp Dewpoint Dewpoint Depression Visibility Wind Speed Wind Dir Waves Ship Positions

Ayane Maru

Last reported at 2018-Apr-24 08:00 UTC. Time now 2018-Apr-24 12:40 UTC.
Position N 34°35' E 138°56'.

Length 85 m; draft 3.4 m.

Type: Cargo ship. MMSI: 431003481.

Date/timePositionNaut miles runAvg speedWind from/ knotsBaromVisibWave heightAir tempDewpointWater temp
2018-Apr-24 08:00N 34°35' E 138°56'1213.7
2018-Apr-24 07:08N 34°38' E 138°42'513.5
2018-Apr-24 06:45N 34°40' E 138°36'613.2
2018-Apr-24 06:19N 34°43' E 138°30'413.1
2018-Apr-24 06:00N 34°44' E 138°25'611.3
2018-Apr-24 05:27N 34°47' E 138°18'0 0.1
2018-Apr-24 04:59N 34°47' E 138°18'0 0.0
2018-Apr-24 03:42N 34°47' E 138°18'0 0.0
2018-Apr-24 03:30N 34°47' E 138°18'0 0.0
2018-Apr-23 23:29N 34°47' E 138°18'1 2.6
2018-Apr-23 22:59N 34°45' E 138°18'612.7
2018-Apr-23 22:29N 34°39' E 138°17'16711.1
2018-Apr-23 07:28N 33°54' E 135°02'612.8
2018-Apr-23 07:00N 33°60' E 135°03'612.5
2018-Apr-23 06:29N 34°06' E 135°03'612.3
2018-Apr-23 06:00N 34°12' E 135°03'612.1
2018-Apr-23 05:30N 34°18' E 135°04'611.5
2018-Apr-23 05:00N 34°23' E 135°08'612.1
2018-Apr-23 04:30N 34°27' E 135°12'612.2
2018-Apr-23 04:00N 34°32' E 135°17'612.2
2018-Apr-23 03:31N 34°36' E 135°22'2 3.2
2018-Apr-23 03:00N 34°37' E 135°24'0 0.0
2018-Apr-23 02:30N 34°37' E 135°24'0 0.0
2018-Apr-23 02:00N 34°37' E 135°24'0 0.0
2018-Apr-23 01:30N 34°37' E 135°24'0 0.0
2018-Apr-23 01:00N 34°37' E 135°24'0 0.0
2018-Apr-23 00:30N 34°37' E 135°24'0 0.0
2018-Apr-23 00:00N 34°37' E 135°24'0 0.0
2018-Apr-22 23:30N 34°37' E 135°24'0 0.0
2018-Apr-22 23:00N 34°37' E 135°24'0 0.0
2018-Apr-22 22:30N 34°37' E 135°24'0 0.0
2018-Apr-22 22:00N 34°37' E 135°24'0 0.2
2018-Apr-22 21:30N 34°37' E 135°24'4 8.1
2018-Apr-22 21:00N 34°36' E 135°20'1 1.6
2018-Apr-22 20:30N 34°35' E 135°19'0 0.0
2018-Apr-22 20:00N 34°35' E 135°19'0 0.0
2018-Apr-22 19:30N 34°35' E 135°19'0 0.0
2018-Apr-22 19:00N 34°35' E 135°19'2 4.5
2018-Apr-22 18:30N 34°35' E 135°16'612.3
2018-Apr-22 18:00N 34°35' E 135°08'611.2
2018-Apr-22 17:30N 34°37' E 135°02'510.6
2018-Apr-22 17:00N 34°36' E 134°56'510.7
2018-Apr-22 16:30N 34°34' E 134°50'611.7
2018-Apr-22 16:00N 34°31' E 134°43'612.7
2018-Apr-22 15:30N 34°29' E 134°36'713.3
2018-Apr-22 15:00N 34°26' E 134°28'1312.0
2018-Apr-22 13:54N 34°24' E 134°12'8011.6
2018-Apr-22 07:01N 34°13' E 132°37'0 9.6
2018-Apr-22 07:00N 34°13' E 132°37'0 0.0
2018-Apr-21 15:59N 34°13' E 132°37'10 1.0
2018-Apr-21 06:01N 34°15' E 132°49'6312.6
2018-Apr-21 01:00N 34°27' E 134°04'714.5
2018-Apr-21 00:30N 34°25' E 134°12'714.1
2018-Apr-21 00:01N 34°22' E 134°20'713.8
2018-Apr-20 23:30N 34°19' E 134°28'713.8
2018-Apr-20 23:00N 34°17' E 134°35'713.3
2018-Apr-20 22:30N 34°12' E 134°41'613.3
2018-Apr-20 22:00N 34°07' E 134°46'713.5
2018-Apr-20 21:30N 34°02' E 134°52'713.4
2018-Apr-20 21:00N 33°57' E 134°57'713.2
2018-Apr-20 20:30N 33°52' E 135°02'6410.8
2018-Apr-20 14:34N 33°47' E 136°19'5812.0
2018-Apr-20 09:45N 34°37' E 136°55'613.0
2018-Apr-20 09:18N 34°41' E 136°50'413.5
2018-Apr-20 09:00N 34°45' E 136°48'613.3
2018-Apr-20 08:30N 34°51' E 136°46'713.6
2018-Apr-20 08:00N 34°58' E 136°46'4 8.7
2018-Apr-20 07:30N 35°02' E 136°48'0 0.0
2018-Apr-20 07:00N 35°02' E 136°48'0 0.0
2018-Apr-20 06:31N 35°02' E 136°48'0 0.0
2018-Apr-20 06:00N 35°02' E 136°48'0 0.0
2018-Apr-20 05:29N 35°02' E 136°48'0 0.0
2018-Apr-20 05:01N 35°02' E 136°48'0 0.0
2018-Apr-20 04:30N 35°02' E 136°48'0 0.0
2018-Apr-20 04:01N 35°02' E 136°48'0 0.0
2018-Apr-20 03:31N 35°02' E 136°48'0 0.0
2018-Apr-20 03:00N 35°02' E 136°48'0 0.0
2018-Apr-20 02:31N 35°02' E 136°48'0 0.0
2018-Apr-20 02:00N 35°02' E 136°48'0 0.0
2018-Apr-20 01:31N 35°02' E 136°48'0 0.0
2018-Apr-20 01:01N 35°02' E 136°48'0 0.0
2018-Apr-20 00:31N 35°02' E 136°48'0 0.0
2018-Apr-20 00:00N 35°02' E 136°48'0 0.0
2018-Apr-19 23:30N 35°02' E 136°48'0 0.0
2018-Apr-19 23:01N 35°02' E 136°48'0 0.0
2018-Apr-19 22:30N 35°02' E 136°48'0 0.0
2018-Apr-19 22:01N 35°02' E 136°48'0 0.0
2018-Apr-19 21:30N 35°02' E 136°48'0 0.0
2018-Apr-19 21:00N 35°02' E 136°48'0 0.0
2018-Apr-19 20:30N 35°02' E 136°48'0 0.0
2018-Apr-19 20:00N 35°02' E 136°48'0 0.0
2018-Apr-19 19:31N 35°02' E 136°48'0 0.0
2018-Apr-19 19:01N 35°02' E 136°48'0 0.0
2018-Apr-19 18:31N 35°02' E 136°48'0 0.0
2018-Apr-19 18:01N 35°02' E 136°48'0 0.0
2018-Apr-19 17:31N 35°02' E 136°48'0 0.0
2018-Apr-19 17:00N 35°02' E 136°48'0 0.0
2018-Apr-19 16:30N 35°02' E 136°48'0 0.0
2018-Apr-19 16:00N 35°02' E 136°48'0 0.0
2018-Apr-19 15:30N 35°02' E 136°48'0 0.0
2018-Apr-19 15:01N 35°02' E 136°48'0 0.0
2018-Apr-19 14:30N 35°02' E 136°48'0 0.0
2018-Apr-19 14:01N 35°02' E 136°48'0 0.0
2018-Apr-19 13:30N 35°02' E 136°48'0 0.0
2018-Apr-19 13:01N 35°02' E 136°48'0 0.0
2018-Apr-19 12:30N 35°02' E 136°48'0 0.0
2018-Apr-19 12:01N 35°02' E 136°48'0 0.0
2018-Apr-19 11:30N 35°02' E 136°48'0 0.0
2018-Apr-19 11:01N 35°02' E 136°48'0 0.0
2018-Apr-19 10:30N 35°02' E 136°48'0 0.0
2018-Apr-19 10:01N 35°02' E 136°48'0 0.0
2018-Apr-19 09:31N 35°02' E 136°48'0 0.0
2018-Apr-19 09:00N 35°02' E 136°48'0 0.0
2018-Apr-19 08:30N 35°02' E 136°48'3 5.1
2018-Apr-19 08:01N 34°60' E 136°47'612.7
2018-Apr-19 07:30N 34°53' E 136°47'713.6
2018-Apr-19 07:00N 34°47' E 136°49'714.0
2018-Apr-19 06:30N 34°40' E 136°53'714.2
2018-Apr-19 06:00N 34°35' E 136°59'107 9.4
2018-Apr-18 18:39N 33°50' E 135°02'214.0
2018-Apr-18 18:30N 33°52' E 135°00'713.8
2018-Apr-18 18:00N 33°57' E 134°56'813.8
2018-Apr-18 17:24N 34°03' E 134°49'614.0
2018-Apr-18 17:00N 34°08' E 134°45'714.2
2018-Apr-18 16:30N 34°13' E 134°40'713.9
2018-Apr-18 16:01N 34°17' E 134°33'713.6
2018-Apr-18 15:29N 34°20' E 134°25'1213.1
2018-Apr-18 14:35N 34°25' E 134°11'212.6
2018-Apr-18 14:27N 34°25' E 134°10'7811.1
2018-Apr-18 07:26N 34°13' E 132°37'0 0.1
2018-Apr-18 02:13N 34°13' E 132°37'0 0.0
2018-Apr-18 02:01N 34°13' E 132°37'0 0.0
2018-Apr-18 01:21N 34°13' E 132°37'0 0.0
2018-Apr-18 00:46N 34°13' E 132°37'0 0.0
2018-Apr-18 00:22N 34°13' E 132°37'0 0.0
2018-Apr-17 23:55N 34°13' E 132°37'1 0.2
2018-Apr-17 17:17N 34°12' E 132°37'1013.7
2018-Apr-17 16:34N 34°15' E 132°48'113.8
2018-Apr-17 16:29N 34°16' E 132°49'613.3
2018-Apr-17 16:00N 34°18' E 132°57'6412.9
2018-Apr-17 11:04N 34°24' E 134°14'115.0
2018-Apr-17 11:00N 34°24' E 134°15'913.7
2018-Apr-17 10:19N 34°26' E 134°26'413.4
2018-Apr-17 09:59N 34°28' E 134°31'713.5
2018-Apr-17 09:30N 34°30' E 134°38'713.5
2018-Apr-17 09:00N 34°33' E 134°46'712.9
2018-Apr-17 08:29N 34°35' E 134°53'612.2
2018-Apr-17 08:00N 34°37' E 135°00'510.4
2018-Apr-17 07:31N 34°36' E 135°06'713.3
2018-Apr-17 07:00N 34°36' E 135°14'612.8
2018-Apr-17 06:30N 34°36' E 135°22'2 3.8
2018-Apr-17 06:00N 34°37' E 135°24'0 0.0
2018-Apr-17 05:30N 34°37' E 135°24'0 0.0
2018-Apr-17 05:00N 34°37' E 135°24'0 0.0
2018-Apr-17 04:31N 34°37' E 135°24'0 0.0
2018-Apr-17 04:00N 34°37' E 135°24'0 0.0
2018-Apr-17 03:31N 34°37' E 135°24'0 0.0
2018-Apr-17 03:00N 34°37' E 135°24'0 0.0
2018-Apr-17 02:31N 34°37' E 135°24'0 0.0
2018-Apr-17 02:00N 34°37' E 135°24'0 0.0
2018-Apr-17 01:30N 34°37' E 135°24'0 0.0
2018-Apr-17 01:00N 34°37' E 135°24'0 0.0
2018-Apr-17 00:30N 34°37' E 135°24'0 0.0
2018-Apr-17 00:00N 34°37' E 135°24'0 0.0
2018-Apr-16 23:30N 34°37' E 135°24'0 0.0
2018-Apr-16 23:00N 34°37' E 135°24'0 0.0
2018-Apr-16 22:30N 34°37' E 135°24'0 0.0
2018-Apr-16 22:00N 34°37' E 135°24'0 0.2
2018-Apr-16 21:30N 34°37' E 135°24'4 7.4
2018-Apr-16 21:00N 34°36' E 135°20'1 1.6
2018-Apr-16 20:30N 34°36' E 135°19'0 0.0
2018-Apr-16 20:01N 34°36' E 135°19'0 0.0
2018-Apr-16 19:31N 34°36' E 135°19'0 0.0
2018-Apr-16 19:01N 34°36' E 135°19'0 0.0
2018-Apr-16 18:30N 34°36' E 135°19'0 0.0
2018-Apr-16 18:01N 34°36' E 135°19'0 0.0
2018-Apr-16 17:30N 34°36' E 135°19'0 0.0
2018-Apr-16 17:00N 34°36' E 135°19'0 0.0
2018-Apr-16 16:30N 34°36' E 135°19'0 0.0
2018-Apr-16 16:00N 34°36' E 135°19'0 0.0
2018-Apr-16 15:30N 34°36' E 135°19'0 0.0
2018-Apr-16 15:00N 34°36' E 135°19'0 0.0
2018-Apr-16 14:30N 34°36' E 135°19'0 0.0
2018-Apr-16 14:00N 34°36' E 135°19'0 0.0
2018-Apr-16 13:30N 34°36' E 135°19'1 2.9
2018-Apr-16 13:00N 34°35' E 135°18'611.6
2018-Apr-16 12:30N 34°30' E 135°14'612.5
2018-Apr-16 12:00N 34°25' E 135°09'713.2
2018-Apr-16 11:30N 34°19' E 135°05'713.5
2018-Apr-16 11:00N 34°13' E 135°02'713.3
2018-Apr-16 10:30N 34°06' E 135°02'713.4
2018-Apr-16 10:00N 33°60' E 135°02'813.2
2018-Apr-16 09:26N 33°52' E 135°03'101 8.7
2018-Apr-15 21:45N 34°40' E 136°51'413.9
2018-Apr-15 21:29N 34°43' E 136°48'714.0
2018-Apr-15 21:00N 34°49' E 136°46'714.1
2018-Apr-15 20:30N 34°56' E 136°46'511.1
2018-Apr-15 20:00N 35°01' E 136°48'1 1.1
2018-Apr-15 19:31N 35°02' E 136°48'0 0.0
2018-Apr-15 19:00N 35°02' E 136°48'0 0.0
2018-Apr-15 18:31N 35°02' E 136°48'0 0.0
2018-Apr-15 18:00N 35°02' E 136°48'0 0.0
2018-Apr-15 17:30N 35°02' E 136°48'0 0.0
2018-Apr-15 17:01N 35°02' E 136°48'0 0.0
2018-Apr-15 16:30N 35°02' E 136°48'0 0.0
2018-Apr-15 16:00N 35°02' E 136°48'0 0.0
2018-Apr-15 15:31N 35°02' E 136°48'0 0.0
2018-Apr-15 15:00N 35°02' E 136°48'0 0.0
2018-Apr-15 14:31N 35°02' E 136°48'0 0.0
2018-Apr-15 14:00N 35°02' E 136°48'0 0.0
2018-Apr-15 13:31N 35°02' E 136°48'0 0.0
2018-Apr-15 13:00N 35°02' E 136°48'0 0.0
2018-Apr-15 12:29N 35°02' E 136°48'0 0.0
2018-Apr-15 12:01N 35°02' E 136°48'0 0.0
2018-Apr-15 11:30N 35°02' E 136°48'0 0.0
2018-Apr-15 10:59N 35°02' E 136°48'0 0.0
2018-Apr-15 10:31N 35°02' E 136°48'0 0.0
2018-Apr-15 10:00N 35°02' E 136°48'0 0.0
2018-Apr-15 09:30N 35°02' E 136°48'0 0.0
2018-Apr-15 09:01N 35°02' E 136°48'0 0.0
2018-Apr-15 08:30N 35°02' E 136°48'0 0.0
2018-Apr-15 08:00N 35°02' E 136°48'0 0.0
2018-Apr-15 07:30N 35°02' E 136°48'0 0.0
2018-Apr-15 07:00N 35°02' E 136°48'0 0.0
2018-Apr-15 06:30N 35°02' E 136°48'0 0.0
2018-Apr-15 06:00N 35°02' E 136°48'0 0.0
2018-Apr-15 05:30N 35°02' E 136°48'0 0.0
2018-Apr-15 04:59N 35°02' E 136°48'0 0.0
2018-Apr-15 04:30N 35°02' E 136°48'0 0.0
2018-Apr-15 04:00N 35°02' E 136°48'0 0.0
2018-Apr-15 03:30N 35°02' E 136°48'0 0.0
2018-Apr-15 03:00N 35°02' E 136°48'0 0.0
2018-Apr-15 02:30N 35°02' E 136°48'0 0.0
2018-Apr-15 02:00N 35°02' E 136°48'0 0.0
2018-Apr-15 01:29N 35°02' E 136°48'0 0.0
2018-Apr-15 01:00N 35°02' E 136°48'0 0.0
2018-Apr-15 00:30N 35°02' E 136°48'0 0.0
2018-Apr-15 00:00N 35°02' E 136°48'0 0.0
2018-Apr-14 23:30N 35°02' E 136°48'0 0.0
2018-Apr-14 23:00N 35°02' E 136°48'0 0.0
2018-Apr-14 22:30N 35°02' E 136°48'0 0.0
2018-Apr-14 22:00N 35°02' E 136°48'0 0.0
2018-Apr-14 21:30N 35°02' E 136°48'0 0.0
2018-Apr-14 21:00N 35°02' E 136°48'0 0.0
2018-Apr-14 20:31N 35°02' E 136°48'0 0.0
2018-Apr-14 20:00N 35°02' E 136°48'0 0.0
2018-Apr-14 19:31N 35°02' E 136°48'0 0.0
2018-Apr-14 19:00N 35°02' E 136°48'0 0.0
2018-Apr-14 18:30N 35°02' E 136°48'0 0.0
2018-Apr-14 18:00N 35°02' E 136°48'0 0.0
2018-Apr-14 17:30N 35°02' E 136°48'0 0.0
2018-Apr-14 17:00N 35°02' E 136°48'0 0.0
2018-Apr-14 16:31N 35°02' E 136°48'0 0.0
2018-Apr-14 16:00N 35°02' E 136°48'0 0.0
2018-Apr-14 15:31N 35°02' E 136°48'0 0.0
2018-Apr-14 15:00N 35°02' E 136°48'0 0.0
2018-Apr-14 14:31N 35°02' E 136°48'0 0.0
2018-Apr-14 14:01N 35°02' E 136°48'0 0.0
2018-Apr-14 13:29N 35°02' E 136°48'0 0.0
2018-Apr-14 13:00N 35°02' E 136°48'0 0.0
2018-Apr-14 12:31N 35°02' E 136°48'0 0.0
2018-Apr-14 12:01N 35°02' E 136°48'0 0.0
2018-Apr-14 11:31N 35°02' E 136°48'0 0.0
2018-Apr-14 11:01N 35°02' E 136°48'0 0.0
2018-Apr-14 10:29N 35°02' E 136°48'0 0.0
2018-Apr-14 10:00N 35°02' E 136°48'0 0.0
2018-Apr-14 09:30N 35°02' E 136°48'0 0.0
2018-Apr-14 09:01N 35°02' E 136°48'0 0.0
2018-Apr-14 08:30N 35°02' E 136°48'  

Dump ship's entire track history